Airfield :
LOGIN :

Register | Disclaimer

   EN    FR    IT 

 










Legend :    VFR   Marginal VFR   IFR   Intensive IFR   Very Intensive IFR
Visi :
Ceiling :
>= 8 km
>= 3000ft
5 to 8 km
1000 to 3000 ft
1500m to 5 km
500 to 1000 ft
800 to 1500m
200 to 500 ft
< 800m
< 200 ft
Symbols :   Thunderstorms  Fog  Heavy snow  Heavy precipitations  Wind > 20 kt
SIGMETs :     Misc.  Thunderstorms  Icing  Turbulence  Mountain Waves  Volcanic Ashes






- Airport Elevation : 788 ft
- IATA code : DCM


LFCK - Castres-Mazamet

CURRENT METAR :
  • 170600Z AUTO 30010KT 3900 -RA BR OVC007/// ///TCU 06/06 Q1024 TEMPO 2000 OVC003 BECMG 27020G30KT

EXPIRED METARs :
  • 170530Z AUTO 32009KT 2300 -RA BR BKN009/// OVC014/// ///TCU 05/05 Q1024 TEMPO OVC003 BECMG 27020G30KT
  • 170500Z AUTO 30011KT 9999 -RA OVC015/// ///TCU 06/05 Q1024
  • 170430Z AUTO 31009KT 9999 -RADZ OVC014/// ///TCU 06/05 Q1024
  • 170400Z AUTO 31010KT 7000 -RA OVC009/// ///TCU 05/05 Q1024
  • 170330Z AUTO 30008KT 3500 -DZ BR OVC003 05/04 Q1024

TAF TAF LFCK
Valid from the 17 at 06:00 until the 17 at 15:00 UTC


170500Z 1706/1715 27015KT 4000 -RADZ OVC006
BECMG 1706/1708 27020G30KT
TEMPO 1706/1710 2000 OVC003
BECMG 1710/1712 31015KT 9999 NSW BKN016



MET'MAP, your aeronautical weather chart ! - Copyright ORBIFLY December 2007 - Disclaimer

ORBIFLY MET'MAP TEAM :

Programming & Development : Alexandra Zaïnal
Concept & original design : Baudouin d'Aumeries
Assistance for programming : Marc-Olivier Méhu
Technical & hardware support : Manuel Goepfert

Contact : metmap@orbifly.com




SOURCES & CREDITS :

   NOAA